地図

経路データ

SID SEASON NUMBER BASIN SUBBASIN NAME ISO_TIME NATURE LAT LON WMO_WIND WMO_PRES WMO_AGENCY TRACK_TYPE DIST2LAND LANDFALL IFLAG USA_AGENCY USA_ATCF_ID USA_LAT USA_LON USA_RECORD USA_STATUS USA_WIND USA_PRES USA_SSHS USA_R34_NE USA_R34_SE USA_R34_SW USA_R34_NW USA_R50_NE USA_R50_SE USA_R50_SW USA_R50_NW USA_R64_NE USA_R64_SE USA_R64_SW USA_R64_NW USA_POCI USA_ROCI USA_RMW USA_EYE TOKYO_LAT TOKYO_LON TOKYO_GRADE TOKYO_WIND TOKYO_PRES TOKYO_R50_DIR TOKYO_R50_LONG TOKYO_R50_SHORT TOKYO_R30_DIR TOKYO_R30_LONG TOKYO_R30_SHORT TOKYO_LAND CMA_LAT CMA_LON CMA_CAT CMA_WIND CMA_PRES HKO_LAT HKO_LON HKO_CAT HKO_WIND HKO_PRES NEWDELHI_LAT NEWDELHI_LON NEWDELHI_GRADE NEWDELHI_WIND NEWDELHI_PRES NEWDELHI_CI NEWDELHI_DP NEWDELHI_POCI REUNION_LAT REUNION_LON REUNION_TYPE REUNION_WIND REUNION_PRES REUNION_TNUM REUNION_CI REUNION_RMW REUNION_R34_NE REUNION_R34_SE REUNION_R34_SW REUNION_R34_NW REUNION_R50_NE REUNION_R50_SE REUNION_R50_SW REUNION_R50_NW REUNION_R64_NE REUNION_R64_SE REUNION_R64_SW REUNION_R64_NW BOM_LAT BOM_LON BOM_TYPE BOM_WIND BOM_PRES BOM_TNUM BOM_CI BOM_RMW BOM_R34_NE BOM_R34_SE BOM_R34_SW BOM_R34_NW BOM_R50_NE BOM_R50_SE BOM_R50_SW BOM_R50_NW BOM_R64_NE BOM_R64_SE BOM_R64_SW BOM_R64_NW BOM_ROCI BOM_POCI BOM_EYE BOM_POS_METHOD BOM_PRES_METHOD NADI_LAT NADI_LON NADI_CAT NADI_WIND NADI_PRES WELLINGTON_LAT WELLINGTON_LON WELLINGTON_WIND WELLINGTON_PRES DS824_LAT DS824_LON DS824_STAGE DS824_WIND DS824_PRES TD9636_LAT TD9636_LON TD9636_STAGE TD9636_WIND TD9636_PRES TD9635_LAT TD9635_LON TD9635_WIND TD9635_PRES TD9635_ROCI NEUMANN_LAT NEUMANN_LON NEUMANN_CLASS NEUMANN_WIND NEUMANN_PRES MLC_LAT MLC_LON MLC_CLASS MLC_WIND MLC_PRES USA_GUST BOM_GUST BOM_GUST_PER REUNION_GUST REUNION_GUST_PER USA_SEAHGT USA_SEARAD_NE USA_SEARAD_SE USA_SEARAD_SW USA_SEARAD_NW STORM_SPEED STORM_DIR
1950087S14175 1950 20 SP MM NOT_NAMED 1950-03-28 00:00:00 TS -14.3000 174.600 main 473 442 O________OO___ jtwc_sh SH191950 -14.3000 174.600 -1 -14.3000 174.600 TC -14.3000 174.600 4 6 135
1950087S14175 1950 20 SP MM NOT_NAMED 1950-03-28 03:00:00 TS -14.5084 174.811 main 442 411 P________PP___ SH191950 -14.5100 174.795 -1 -14.5100 174.795 TC -14.5051 174.843 4 6 134
1950087S14175 1950 20 SP MM NOT_NAMED 1950-03-28 06:00:00 TS -14.6994 175.023 main 411 380 O________OP___ jtwc_sh SH191950 -14.7000 175.000 -1 -14.7000 175.000 TC -14.6981 175.069 4 5 131
1950087S14175 1950 20 SP MM NOT_NAMED 1950-03-28 09:00:00 TS -14.8607 175.230 main 380 358 P________PP___ SH191950 -14.8575 175.215 -1 -14.8575 175.215 TC -14.8670 175.260 4 5 129
1950087S14175 1950 20 SP MM NOT_NAMED 1950-03-28 12:00:00 TS -15.0000 175.400 main 358 343 O________OO___ jtwc_sh SH191950 -15.0000 175.400 -1 -15.0000 175.400 TC -15.0000 175.400 4 4 136
1950087S14175 1950 20 SP MM NOT_NAMED 1950-03-28 15:00:00 TS -15.1319 175.499 main 343 318 P________PP___ SH191950 -15.1500 175.508 -1 -15.1500 175.508 TC -15.0957 175.483 4 3 146
1950087S14175 1950 20 SP MM NOT_NAMED 1950-03-28 18:00:00 TS -15.2647 175.585 main 318 303 O________OP___ jtwc_sh SH191950 -15.3000 175.600 -1 -15.3000 175.600 TC -15.1941 175.555 4 3 144
1950087S14175 1950 20 SP MM NOT_NAMED 1950-03-28 21:00:00 TS -15.3901 175.690 main 303 272 P________PP___ SH191950 -15.4123 175.698 -1 -15.4123 175.698 TC -15.3455 175.674 4 5 138
1950087S14175 1950 20 SP MM NOT_NAMED 1950-03-29 00:00:00 TS -15.6000 175.900 main 272 220 O________OO___ jtwc_sh SH191950 -15.6000 175.900 -1 -15.6000 175.900 TC -15.6000 175.900 4 8 133
1950087S14175 1950 20 SP MM NOT_NAMED 1950-03-29 03:00:00 TS -15.9494 176.305 main 220 143 P________PP___ SH191950 -15.9250 176.283 -1 -15.9250 176.283 TC -15.9981 176.349 4 12 133
1950087S14175 1950 20 SP MM NOT_NAMED 1950-03-29 06:00:00 TS -16.4340 176.834 main 143 56 O________OP___ jtwc_sh SH191950 -16.4000 176.800 -1 -16.4000 176.800 TC -16.5019 176.903 4 15 135
1950087S14175 1950 20 SP MM NOT_NAMED 1950-03-29 09:00:00 TS -17.0350 177.427 main 56 0 P________PP___ SH191950 -17.0127 177.400 -1 -17.0127 177.400 TC -17.0795 177.480 4 17 139
1950087S14175 1950 20 SP MM NOT_NAMED 1950-03-29 12:00:00 TS -17.7000 178.000 main 0 0 O________OO___ jtwc_sh SH191950 -17.7000 178.000 -1 -17.7000 178.000 TC -17.7000 178.000 4 17 142
1950087S14175 1950 20 SP MM NOT_NAMED 1950-03-29 15:00:00 TS -18.3365 178.498 main 15 15 P________PP___ SH191950 -18.3500 178.525 -1 -18.3500 178.525 TC -18.3095 178.443 4 15 147
1950087S14175 1950 20 SP MM NOT_NAMED 1950-03-29 18:00:00 TS -18.9848 178.867 main 102 102 O________OP___ jtwc_sh SH191950 -19.0000 178.900 -1 -19.0000 178.900 TC -18.9543 178.802 4 14 157
1950087S14175 1950 20 SP MM NOT_NAMED 1950-03-29 21:00:00 TS -19.6405 179.087 main 173 173 P________PP___ SH191950 -19.6497 179.112 -1 -19.6497 179.112 TC -19.6219 179.036 4 13 171
1950087S14175 1950 20 SP MM NOT_NAMED 1950-03-30 00:00:00 TS -20.3000 179.100 main 242 242 O________OO___ jtwc_sh SH191950 -20.3000 179.100 -1 -20.3000 179.100 TC -20.3000 179.100 4 13 188
1950087S14175 1950 20 SP MM NOT_NAMED 1950-03-30 03:00:00 TS -20.9456 178.899 main 299 299 P________PP___ SH191950 -20.9426 178.868 -1 -20.9426 178.868 TC -20.9516 178.962 4 14 201
1950087S14175 1950 20 SP MM NOT_NAMED 1950-03-30 06:00:00 TS -21.6043 178.552 main 371 370 O________OP___ jtwc_sh SH191950 -21.6000 178.500 -1 -21.6000 178.500 TC -21.6128 178.655 4 15 206
1950087S14175 1950 20 SP MM NOT_NAMED 1950-03-30 09:00:00 TS -22.2824 178.201 main 447 447 P________PP___ SH191950 -22.2773 178.179 -1 -22.2773 178.179 TC -22.2925 178.245 4 16 206
1950087S14175 1950 20 SP MM NOT_NAMED 1950-03-30 12:00:00 TS -23.0000 177.800 main 525 525 O________OO___ jtwc_sh SH191950 -23.0000 177.800 -1 -23.0000 177.800 TC -23.0000 177.800 4 17 209
1950087S14175 1950 20 SP MM NOT_NAMED 1950-03-30 15:00:00 TS -23.7992 177.292 main 618 618 P________PP___ SH191950 -23.7928 177.293 -1 -23.7928 177.293 TC -23.8119 177.289 4 19 210
1950087S14175 1950 20 SP MM NOT_NAMED 1950-03-30 18:00:00 TS -24.6136 176.792 main 713 713 O________OP___ jtwc_sh SH191950 -24.6000 176.800 -1 -24.6000 176.800 TC -24.6408 176.776 4 18 207
1950087S14175 1950 20 SP MM NOT_NAMED 1950-03-30 21:00:00 TS -25.4045 176.378 main 808 808 P________PP___ SH191950 -25.3948 176.381 -1 -25.3948 176.381 TC -25.4239 176.374 4 16 200
1950087S14175 1950 20 SP MM NOT_NAMED 1950-03-31 00:00:00 TS -26.1000 176.200 main 889 889 O________OO___ jtwc_sh SH191950 -26.1000 176.200 -1 -26.1000 176.200 TC -26.1000 176.200 4 13 181
1950087S14175 1950 20 SP MM NOT_NAMED 1950-03-31 03:00:00 TS -26.6612 176.371 main 928 901 P________PP___ SH191950 -26.6747 176.364 -1 -26.6747 176.364 TC -26.6344 176.384 4 11 151
1950087S14175 1950 20 SP MM NOT_NAMED 1950-03-31 06:00:00 TS -27.0842 176.803 main 901 891 O________OP___ jtwc_sh SH191950 -27.1000 176.800 -1 -27.1000 176.800 TC -27.0526 176.809 4 12 129
1950087S14175 1950 20 SP MM NOT_NAMED 1950-03-31 09:00:00 TS -27.3916 177.368 main 895 890 P________PP___ SH191950 -27.4028 177.363 -1 -27.4028 177.363 TC -27.3693 177.379 4 12 116
1950087S14175 1950 20 SP MM NOT_NAMED 1950-03-31 12:00:00 TS -27.6000 178.000 main 904 904 O________OO___ jtwc_sh SH191950 -27.6000 178.000 -1 -27.6000 178.000 TC -27.6000 178.000 4 11 110
1950087S14175 1950 20 SP MM NOT_NAMED 1950-03-31 15:00:00 TS -27.7736 178.569 main 917 917 P________PP___ SH191950 -27.7797 178.558 -1 -27.7797 178.558 TC -27.7614 178.592 4 10 106
1950087S14175 1950 20 SP MM NOT_NAMED 1950-03-31 18:00:00 TS -27.8902 179.116 main 936 936 O________OP___ jtwc_sh SH191950 -27.9000 179.100 -1 -27.9000 179.100 TC -27.8706 179.148 4 10 101
1950087S14175 1950 20 SP MM NOT_NAMED 1950-03-31 21:00:00 TS -27.9585 179.658 main 957 957 P________PP___ SH191950 -27.9655 179.647 -1 -27.9655 179.647 TC -27.9445 179.680 4 10 97
1950087S14175 1950 20 SP MM NOT_NAMED 1950-04-01 00:00:00 TS -28.0000 180.200 main 985 O________OO___ jtwc_sh SH191950 -28.0000 -179.800 -1 -28.0000 180.200 TC -28.0000 -179.800 4 10 95

デジタル台風データ・検索

IBTrACS Databaseについて

本データベースは、米国NOAAが公開する1842年以降の世界の熱帯低気圧のベストトラックデータアーカイブInternational Best Track Archive for Climate Stewardship (IBTrACS)を、ウェブで閲覧しやすい形式に変換したものです。

最終更新日:2021-12-08